createdAt,value
2019-03-01T00:00:47.322Z,995.5
2019-03-01T00:01:48.273Z,995.5
2019-03-01T00:02:48.983Z,995.5
2019-03-01T00:03:49.973Z,995.5
2019-03-01T00:04:50.675Z,995.5
2019-03-01T00:05:51.399Z,995.5
2019-03-01T00:06:52.135Z,995.5
2019-03-01T00:07:52.836Z,995.5
2019-03-01T00:08:53.549Z,995.5
2019-03-01T00:09:54.244Z,995.5
2019-03-01T00:10:54.953Z,995.5
2019-03-01T00:11:55.669Z,995.5
2019-03-01T00:12:56.368Z,995.5
2019-03-01T00:13:57.097Z,995.5
2019-03-01T00:14:57.814Z,995.5
2019-03-01T00:15:58.567Z,995.5
2019-03-01T00:16:59.274Z,995.5
2019-03-01T00:17:59.987Z,995.5
2019-03-01T00:19:00.701Z,995.5
2019-03-01T00:20:01.411Z,995.5
2019-03-01T00:21:02.381Z,995.5
2019-03-01T00:22:03.132Z,995.4
2019-03-01T00:23:03.838Z,995.4
2019-03-01T00:24:04.546Z,995.4
2019-03-01T00:25:05.258Z,995.4
2019-03-01T00:26:05.977Z,995.3
2019-03-01T00:27:06.739Z,995.4
2019-03-01T00:28:07.713Z,995.3
2019-03-01T00:29:08.426Z,995.3
2019-03-01T00:30:09.126Z,995.3
2019-03-01T00:31:09.850Z,995.3
2019-03-01T00:32:10.546Z,995.3
2019-03-01T00:33:11.270Z,995.3
2019-03-01T00:34:11.989Z,995.3
2019-03-01T00:35:12.702Z,995.2
2019-03-01T00:36:13.409Z,995.3
2019-03-01T00:37:14.123Z,995.3
2019-03-01T00:38:14.830Z,995.2
2019-03-01T00:39:15.591Z,995.2
2019-03-01T00:40:16.287Z,995.1
2019-03-01T00:41:17.005Z,995.1
2019-03-01T00:42:17.710Z,995.1
2019-03-01T00:43:18.430Z,995.1
2019-03-01T00:44:19.138Z,995.1
2019-03-01T00:45:19.843Z,995.1
2019-03-01T00:46:20.554Z,995.1
2019-03-01T00:47:21.271Z,995.1
2019-03-01T00:48:21.990Z,995.1
2019-03-01T00:49:22.703Z,995.0
2019-03-01T00:50:23.469Z,995.0
2019-03-01T00:51:24.179Z,995.0
2019-03-01T00:52:24.893Z,995.0
2019-03-01T00:53:25.610Z,995.0
2019-03-01T00:54:26.341Z,995.0
2019-03-01T00:55:27.044Z,995.0
2019-03-01T00:56:27.764Z,995.0
2019-03-01T00:57:28.476Z,995.0
2019-03-01T00:58:29.191Z,995.0
2019-03-01T00:59:29.905Z,995.0
2019-03-01T01:00:30.609Z,994.9
2019-03-01T01:01:31.327Z,994.9
2019-03-01T01:02:32.043Z,994.9
2019-03-01T01:03:32.998Z,994.9
2019-03-01T01:04:33.726Z,994.8
2019-03-01T01:05:34.534Z,994.8
2019-03-01T01:06:35.246Z,994.8
2019-03-01T01:07:36.213Z,994.8
2019-03-01T01:08:36.923Z,994.8
2019-03-01T01:09:37.913Z,994.8
2019-03-01T01:10:38.653Z,994.8
2019-03-01T01:11:39.367Z,994.8
2019-03-01T01:12:40.074Z,994.8
2019-03-01T01:13:40.794Z,994.8
2019-03-01T01:14:41.496Z,994.7
2019-03-01T01:15:42.207Z,994.7
2019-03-01T01:16:42.926Z,994.7
2019-03-01T01:17:43.628Z,994.7
2019-03-01T01:18:44.340Z,994.7
2019-03-01T01:19:45.042Z,994.7
2019-03-01T01:20:45.744Z,994.7
2019-03-01T01:21:46.478Z,994.7
2019-03-01T01:22:47.177Z,994.7
2019-03-01T01:23:47.885Z,994.7
2019-03-01T01:24:48.658Z,994.7
2019-03-01T01:25:49.371Z,994.7
2019-03-01T01:26:50.074Z,994.7
2019-03-01T01:27:51.024Z,994.7
2019-03-01T01:28:51.739Z,994.7
2019-03-01T01:29:52.583Z,994.7
2019-03-01T01:30:53.283Z,994.7
2019-03-01T01:31:54.002Z,994.7
2019-03-01T01:32:54.722Z,994.7
2019-03-01T01:33:55.485Z,994.7
2019-03-01T01:34:56.205Z,994.7
2019-03-01T01:35:56.920Z,994.7
2019-03-01T01:36:57.622Z,994.7
2019-03-01T01:37:58.369Z,994.8
2019-03-01T01:38:59.077Z,994.7
2019-03-01T01:39:59.787Z,994.7
2019-03-01T01:41:00.501Z,994.7
2019-03-01T01:42:01.209Z,994.7
2019-03-01T01:43:01.928Z,994.7
2019-03-01T01:44:02.645Z,994.7
2019-03-01T01:45:03.367Z,994.7
2019-03-01T01:46:04.073Z,994.7
2019-03-01T01:47:04.783Z,994.7
2019-03-01T01:48:05.485Z,994.7
2019-03-01T01:49:06.198Z,994.7
2019-03-01T01:50:06.905Z,994.6
2019-03-01T01:51:07.614Z,994.6
2019-03-01T01:52:08.326Z,994.7
2019-03-01T01:53:09.282Z,994.7
2019-03-01T01:54:10.002Z,994.7
2019-03-01T01:55:10.997Z,994.6
2019-03-01T01:56:11.757Z,994.7
2019-03-01T01:57:12.439Z,994.6
2019-03-01T01:58:13.140Z,994.6
2019-03-01T01:59:13.860Z,994.6
2019-03-01T02:00:14.665Z,994.6
2019-03-01T02:01:15.374Z,994.6
2019-03-01T02:02:16.090Z,994.6
2019-03-01T02:03:16.802Z,994.6
2019-03-01T02:04:17.499Z,994.6
2019-03-01T02:05:18.200Z,994.6
2019-03-01T02:06:19.205Z,994.6
2019-03-01T02:07:19.918Z,994.6
2019-03-01T02:08:20.635Z,994.5
2019-03-01T02:09:21.352Z,994.5
2019-03-01T02:10:22.301Z,994.5
2019-03-01T02:11:23.014Z,994.5
2019-03-01T02:12:23.726Z,994.5
2019-03-01T02:13:24.448Z,994.5
2019-03-01T02:14:25.417Z,994.5
2019-03-01T02:15:26.137Z,994.5
2019-03-01T02:16:26.854Z,994.5
2019-03-01T02:17:27.567Z,994.5
2019-03-01T02:18:28.532Z,994.5
2019-03-01T02:19:29.253Z,994.5
2019-03-01T02:20:30.068Z,994.4
2019-03-01T02:21:30.784Z,994.4
2019-03-01T02:22:31.497Z,994.4
2019-03-01T02:23:32.193Z,994.4
2019-03-01T02:24:33.161Z,994.4
2019-03-01T02:25:33.871Z,994.4
2019-03-01T02:26:34.579Z,994.4
2019-03-01T02:27:35.537Z,994.4
2019-03-01T02:28:36.249Z,994.4
2019-03-01T02:29:36.975Z,994.4
2019-03-01T02:30:37.693Z,994.4
2019-03-01T02:31:38.401Z,994.4
2019-03-01T02:32:39.361Z,994.4
2019-03-01T02:33:40.128Z,994.4
2019-03-01T02:34:40.834Z,994.4
2019-03-01T02:35:41.547Z,994.3
2019-03-01T02:36:42.262Z,994.4
2019-03-01T02:37:43.019Z,994.3
2019-03-01T02:38:43.763Z,994.3
2019-03-01T02:39:44.477Z,994.4
2019-03-01T02:40:45.160Z,994.3
2019-03-01T02:41:45.885Z,994.4
2019-03-01T02:42:46.595Z,994.3
2019-03-01T02:43:47.307Z,994.3
2019-03-01T02:44:48.029Z,994.3
2019-03-01T02:45:48.799Z,994.3
2019-03-01T02:46:49.530Z,994.3
2019-03-01T02:47:50.228Z,994.3
2019-03-01T02:48:50.950Z,994.3
2019-03-01T02:49:51.676Z,994.3
2019-03-01T02:50:52.375Z,994.2
2019-03-01T02:51:53.085Z,994.3
2019-03-01T02:52:53.790Z,994.3
2019-03-01T02:53:54.504Z,994.3
2019-03-01T02:54:55.205Z,994.3
2019-03-01T02:55:56.014Z,994.3
2019-03-01T02:56:56.668Z,994.3
2019-03-01T02:57:57.392Z,994.3
2019-03-01T02:58:58.087Z,994.3
2019-03-01T02:59:58.799Z,994.2
2019-03-01T03:00:59.510Z,994.2
2019-03-01T03:02:00.269Z,994.2
2019-03-01T03:03:01.242Z,994.2
2019-03-01T03:04:01.952Z,994.2
2019-03-01T03:05:02.656Z,994.1
2019-03-01T03:06:03.377Z,994.2
2019-03-01T03:07:04.139Z,994.1
2019-03-01T03:08:04.843Z,994.2
2019-03-01T03:09:05.558Z,994.2
2019-03-01T03:10:06.272Z,994.2
2019-03-01T03:11:06.992Z,994.2
2019-03-01T03:12:07.750Z,994.2
2019-03-01T03:13:08.464Z,994.1
2019-03-01T03:14:09.164Z,994.2
2019-03-01T03:15:09.884Z,994.2
2019-03-01T03:16:10.607Z,994.1
2019-03-01T03:17:11.308Z,994.1
2019-03-01T03:18:12.032Z,994.1
2019-03-01T03:19:12.743Z,994.2
2019-03-01T03:20:13.454Z,994.1
2019-03-01T03:21:14.180Z,994.1
2019-03-01T03:22:14.885Z,994.1
2019-03-01T03:23:15.740Z,994.1
2019-03-01T03:24:16.457Z,994.1
2019-03-01T03:25:17.174Z,994.1
2019-03-01T03:26:17.895Z,994.1
2019-03-01T03:27:18.601Z,994.1
2019-03-01T03:28:19.408Z,994.2
2019-03-01T03:29:20.075Z,994.1
2019-03-01T03:30:20.785Z,994.1
2019-03-01T03:31:21.504Z,994.2
2019-03-01T03:32:22.204Z,994.1
2019-03-01T03:33:22.938Z,994.1
2019-03-01T03:34:23.658Z,994.1
2019-03-01T03:35:24.374Z,994.1
2019-03-01T03:36:25.087Z,994.0
2019-03-01T03:37:25.800Z,994.1
2019-03-01T03:38:26.518Z,994.0
2019-03-01T03:39:27.229Z,994.0
2019-03-01T03:40:27.936Z,994.0
2019-03-01T03:41:28.706Z,994.1
2019-03-01T03:42:29.379Z,994.0
2019-03-01T03:43:30.081Z,994.0
2019-03-01T03:44:30.800Z,994.0
2019-03-01T03:45:31.512Z,994.1
2019-03-01T03:46:32.222Z,994.0
2019-03-01T03:47:32.931Z,994.0
2019-03-01T03:48:36.044Z,994.0
2019-03-01T03:49:34.422Z,994.0
2019-03-01T03:50:35.058Z,994.0
2019-03-01T03:51:35.772Z,994.0
2019-03-01T03:52:36.480Z,994.0
2019-03-01T03:53:37.219Z,994.0
2019-03-01T03:54:37.904Z,994.0
2019-03-01T03:55:38.615Z,994.0
2019-03-01T03:56:39.392Z,994.0
2019-03-01T03:57:40.093Z,994.0
2019-03-01T03:58:40.804Z,994.0
2019-03-01T03:59:41.512Z,994.0
2019-03-01T04:00:42.227Z,993.9
2019-03-01T04:01:42.943Z,993.9
2019-03-01T04:02:43.906Z,993.9
2019-03-01T04:03:44.616Z,993.9
2019-03-01T04:04:45.335Z,993.9
2019-03-01T04:05:46.043Z,993.9
2019-03-01T04:06:46.759Z,993.9
2019-03-01T04:07:47.657Z,993.9
2019-03-01T04:08:48.340Z,993.9
2019-03-01T04:09:49.048Z,993.9
2019-03-01T04:10:49.758Z,993.9
2019-03-01T04:11:50.469Z,993.9
2019-03-01T04:12:51.178Z,993.9
2019-03-01T04:13:52.134Z,993.9
2019-03-01T04:14:52.854Z,993.9
2019-03-01T04:15:53.555Z,993.9
2019-03-01T04:16:54.267Z,993.9
2019-03-01T04:17:54.977Z,993.9
2019-03-01T04:18:55.693Z,993.9
2019-03-01T04:19:56.654Z,993.9
2019-03-01T04:20:57.373Z,993.9
2019-03-01T04:21:58.093Z,993.9
2019-03-01T04:22:58.801Z,993.9
2019-03-01T04:23:59.786Z,993.9
2019-03-01T04:25:00.489Z,993.9
2019-03-01T04:26:01.195Z,994.0
2019-03-01T04:27:01.898Z,993.9
2019-03-01T04:28:02.615Z,993.9
2019-03-01T04:29:03.381Z,993.9
2019-03-01T04:30:04.106Z,993.9
2019-03-01T04:31:04.822Z,993.9
2019-03-01T04:32:05.515Z,993.9
2019-03-01T04:33:06.230Z,993.9
2019-03-01T04:34:06.944Z,993.9
2019-03-01T04:35:07.648Z,993.9
2019-03-01T04:36:08.372Z,993.9
2019-03-01T04:37:09.088Z,993.9
2019-03-01T04:38:09.806Z,993.9
2019-03-01T04:39:10.529Z,993.9
2019-03-01T04:40:11.244Z,993.9
2019-03-01T04:41:12.205Z,993.9
2019-03-01T04:42:12.925Z,993.9
2019-03-01T04:43:13.637Z,993.9
2019-03-01T04:44:14.357Z,993.9
2019-03-01T04:45:15.068Z,993.9
2019-03-01T04:46:15.774Z,993.9
2019-03-01T04:47:16.494Z,993.9
2019-03-01T04:48:17.212Z,993.9
2019-03-01T04:49:17.923Z,993.9
2019-03-01T04:50:18.637Z,993.9
2019-03-01T04:51:19.356Z,993.9
2019-03-01T04:52:20.073Z,993.9
2019-03-01T04:53:21.206Z,993.9
2019-03-01T04:54:22.257Z,993.9
2019-03-01T04:55:23.040Z,993.9
2019-03-01T04:56:23.747Z,993.9
2019-03-01T04:57:24.465Z,993.9
2019-03-01T04:58:25.170Z,993.9
2019-03-01T04:59:25.910Z,993.8
2019-03-01T05:00:26.622Z,993.9
2019-03-01T05:01:27.427Z,993.9
2019-03-01T05:02:28.140Z,993.9
2019-03-01T05:03:28.864Z,993.8
2019-03-01T05:04:29.578Z,993.9
2019-03-01T05:05:30.294Z,993.8
2019-03-01T05:06:31.002Z,993.9
2019-03-01T05:07:31.726Z,993.8
2019-03-01T05:08:32.444Z,993.8
2019-03-01T05:09:33.192Z,993.8
2019-03-01T05:10:33.910Z,993.8
2019-03-01T05:11:34.622Z,993.8
2019-03-01T05:12:35.343Z,993.8
2019-03-01T05:13:36.044Z,993.8
2019-03-01T05:14:36.752Z,993.9
2019-03-01T05:15:37.472Z,993.8
2019-03-01T05:16:38.186Z,993.8
2019-03-01T05:17:38.910Z,993.9
2019-03-01T05:18:39.677Z,993.9
2019-03-01T05:19:40.399Z,993.9
2019-03-01T05:20:41.118Z,993.8
2019-03-01T05:21:41.842Z,993.9
2019-03-01T05:22:42.557Z,993.9
2019-03-01T05:23:43.279Z,993.9
2019-03-01T05:24:43.985Z,993.9
2019-03-01T05:25:44.700Z,994.0
2019-03-01T05:26:45.672Z,994.0
2019-03-01T05:27:46.395Z,994.0
2019-03-01T05:28:47.227Z,993.9
2019-03-01T05:29:47.934Z,994.0
2019-03-01T05:30:48.659Z,993.9
2019-03-01T05:31:49.639Z,993.9
2019-03-01T05:32:50.341Z,993.9
2019-03-01T05:33:51.067Z,994.0
2019-03-01T05:34:51.782Z,993.9
2019-03-01T05:35:52.637Z,993.9
2019-03-01T05:36:53.366Z,993.9
2019-03-01T05:37:54.089Z,993.9
2019-03-01T05:38:54.789Z,993.9
2019-03-01T05:39:55.501Z,993.9
2019-03-01T05:40:56.219Z,993.9
2019-03-01T05:41:56.925Z,993.9
2019-03-01T05:42:57.886Z,993.9
2019-03-01T05:43:58.846Z,993.9
2019-03-01T05:45:00.542Z,993.9
2019-03-01T05:46:00.278Z,993.9
2019-03-01T05:47:00.994Z,993.9
2019-03-01T05:48:01.714Z,993.9
2019-03-01T05:49:02.424Z,993.9
2019-03-01T05:50:03.142Z,993.9
2019-03-01T05:51:03.959Z,993.9
2019-03-01T05:52:04.681Z,993.9
2019-03-01T05:53:05.413Z,993.9
2019-03-01T05:54:06.107Z,993.9
2019-03-01T05:55:06.818Z,993.9
2019-03-01T05:56:07.548Z,993.9
2019-03-01T05:57:08.262Z,993.9
2019-03-01T05:58:16.221Z,993.9
2019-03-01T05:59:09.715Z,993.9
2019-03-01T06:00:10.413Z,993.9
2019-03-01T06:01:11.132Z,993.9
2019-03-01T06:02:12.107Z,993.9
2019-03-01T06:03:12.820Z,994.0
2019-03-01T06:04:13.524Z,993.9
2019-03-01T06:05:14.268Z,994.0
2019-03-01T06:06:15.029Z,993.9
2019-03-01T06:07:15.731Z,994.0
2019-03-01T06:08:16.837Z,993.9
2019-03-01T06:09:17.555Z,993.9
2019-03-01T06:10:18.266Z,993.9
2019-03-01T06:11:19.059Z,994.0
2019-03-01T06:12:19.765Z,994.0
2019-03-01T06:13:20.526Z,994.0
2019-03-01T06:14:21.267Z,994.0
2019-03-01T06:15:21.998Z,994.0
2019-03-01T06:16:22.710Z,994.0
2019-03-01T06:17:23.490Z,994.0
2019-03-01T06:18:24.450Z,994.0
2019-03-01T06:19:25.164Z,994.0
2019-03-01T06:20:25.888Z,993.9
2019-03-01T06:21:26.591Z,994.0
2019-03-01T06:22:27.315Z,994.0
2019-03-01T06:23:28.047Z,994.0
2019-03-01T06:24:28.763Z,994.0
2019-03-01T06:25:29.500Z,994.0
2019-03-01T06:26:30.194Z,994.0
2019-03-01T06:27:30.926Z,994.0
2019-03-01T06:28:31.641Z,994.0
2019-03-01T06:29:32.455Z,994.0
2019-03-01T06:30:33.176Z,994.0
2019-03-01T06:31:33.895Z,994.1
2019-03-01T06:32:34.614Z,994.0
2019-03-01T06:33:35.354Z,994.1
2019-03-01T06:34:36.229Z,994.1
2019-03-01T06:35:37.033Z,994.1
2019-03-01T06:36:37.746Z,994.1
2019-03-01T06:37:38.701Z,994.1
2019-03-01T06:38:39.959Z,994.0
2019-03-01T06:39:40.847Z,994.1
2019-03-01T06:40:41.561Z,994.0
2019-03-01T06:41:42.285Z,994.1
2019-03-01T06:42:43.035Z,994.1
2019-03-01T06:43:43.816Z,994.1
2019-03-01T06:44:44.758Z,994.1
2019-03-01T06:45:45.487Z,994.1
2019-03-01T06:46:46.209Z,994.1
2019-03-01T06:47:46.951Z,994.1
2019-03-01T06:48:47.650Z,994.1
2019-03-01T06:49:48.371Z,994.2
2019-03-01T06:50:49.081Z,994.2
2019-03-01T06:51:49.805Z,994.2
2019-03-01T06:52:50.570Z,994.2
2019-03-01T06:53:51.286Z,994.2
2019-03-01T06:54:52.000Z,994.2
2019-03-01T06:57:08.275Z,994.2
2019-03-01T06:58:09.246Z,994.2
2019-03-01T06:59:09.962Z,994.2
2019-03-01T07:00:10.675Z,994.3
2019-03-01T07:01:11.400Z,994.3
2019-03-01T07:02:12.114Z,994.3
2019-03-01T07:03:12.835Z,994.3
2019-03-01T07:04:13.553Z,994.2
2019-03-01T07:05:14.277Z,994.3
2019-03-01T07:06:15.000Z,994.3
2019-03-01T07:07:15.712Z,994.3
2019-03-01T07:08:16.442Z,994.3
2019-03-01T07:09:17.153Z,994.3
2019-03-01T07:10:17.894Z,994.3
2019-03-01T07:11:18.597Z,994.3
2019-03-01T07:12:19.318Z,994.3
2019-03-01T07:13:20.044Z,994.3
2019-03-01T07:14:20.772Z,994.3
2019-03-01T07:15:21.484Z,994.3
2019-03-01T07:16:22.212Z,994.4
2019-03-01T07:17:22.962Z,994.3
2019-03-01T07:18:23.690Z,994.3
2019-03-01T07:19:24.417Z,994.3
2019-03-01T07:20:25.135Z,994.4
2019-03-01T07:21:25.909Z,994.4
2019-03-01T07:22:26.611Z,994.4
2019-03-01T07:23:36.288Z,994.4
2019-03-01T07:24:28.063Z,994.4
2019-03-01T07:25:28.781Z,994.4
2019-03-01T07:26:29.507Z,994.4
2019-03-01T07:27:30.244Z,994.4
2019-03-01T07:28:30.930Z,994.4
2019-03-01T07:29:31.649Z,994.4
2019-03-01T07:30:32.369Z,994.4
2019-03-01T07:31:33.085Z,994.4
2019-03-01T07:32:33.798Z,994.5
2019-03-01T07:33:34.518Z,994.4
2019-03-01T07:34:35.231Z,994.4
2019-03-01T07:35:35.959Z,994.4
2019-03-01T07:36:36.672Z,994.4
2019-03-01T07:37:37.386Z,994.5
2019-03-01T07:38:38.128Z,994.5
2019-03-01T07:39:38.837Z,994.5
2019-03-01T07:40:39.802Z,994.5
2019-03-01T07:41:41.123Z,994.5
2019-03-01T07:42:42.142Z,994.6
2019-03-01T07:43:42.915Z,994.6
2019-03-01T07:44:43.625Z,994.6
2019-03-01T07:45:44.373Z,994.6
2019-03-01T07:46:52.562Z,994.6
2019-03-01T07:47:45.798Z,994.6
2019-03-01T07:48:46.550Z,994.6
2019-03-01T07:49:47.258Z,994.6
2019-03-01T07:50:47.982Z,994.6
2019-03-01T07:51:48.710Z,994.6
2019-03-01T07:52:49.427Z,994.6
2019-03-01T07:53:50.157Z,994.7
2019-03-01T07:54:53.101Z,994.7
2019-03-01T07:55:51.592Z,994.7
2019-03-01T07:56:52.347Z,994.8
2019-03-01T07:57:53.054Z,994.7
2019-03-01T07:58:53.776Z,994.7
2019-03-01T07:59:54.745Z,994.8
2019-03-01T08:00:55.542Z,994.8
2019-03-01T08:01:56.469Z,994.8
2019-03-01T08:02:57.183Z,994.7
2019-03-01T08:03:57.905Z,994.8
2019-03-01T08:05:00.022Z,994.8
2019-03-01T08:05:59.585Z,994.7
2019-03-01T08:07:00.407Z,994.8
2019-03-01T08:08:03.508Z,994.7
2019-03-01T08:09:01.863Z,994.7
2019-03-01T08:10:02.578Z,994.7
2019-03-01T08:11:03.282Z,994.7
2019-03-01T08:12:07.385Z,994.7
2019-03-01T08:13:04.724Z,994.7
2019-03-01T08:14:05.449Z,994.8
2019-03-01T08:15:08.377Z,994.8
2019-03-01T08:16:06.897Z,994.8
2019-03-01T08:17:07.623Z,994.7
2019-03-01T08:18:09.265Z,994.7
2019-03-01T08:19:09.077Z,994.8
2019-03-01T08:20:09.828Z,994.8
2019-03-01T08:21:11.464Z,994.8
2019-03-01T08:22:11.265Z,994.8
2019-03-01T08:23:11.982Z,994.9
2019-03-01T08:24:12.706Z,994.9
2019-03-01T08:25:13.422Z,994.9
2019-03-01T08:26:14.142Z,995.0
2019-03-01T08:27:14.864Z,994.9
2019-03-01T08:28:18.596Z,995.0
2019-03-01T08:29:16.293Z,995.0
2019-03-01T08:30:17.017Z,995.0
2019-03-01T08:31:20.909Z,995.0
2019-03-01T08:32:18.462Z,995.0
2019-03-01T08:33:19.486Z,995.0
2019-03-01T08:34:20.196Z,995.0
2019-03-01T08:35:20.914Z,995.0
2019-03-01T08:36:21.633Z,995.1
2019-03-01T08:37:22.369Z,995.1
2019-03-01T08:38:25.519Z,995.1
2019-03-01T08:39:23.941Z,995.1
2019-03-01T08:40:24.655Z,995.1
2019-03-01T08:41:26.289Z,995.1
2019-03-01T08:42:26.080Z,995.1
2019-03-01T08:43:26.802Z,995.1
2019-03-01T08:44:27.643Z,995.1
2019-03-01T08:45:29.774Z,995.1
2019-03-01T08:46:29.077Z,995.1
2019-03-01T08:47:29.792Z,995.1
2019-03-01T08:48:33.342Z,995.1
2019-03-01T08:49:31.249Z,995.1
2019-03-01T08:50:31.970Z,995.1
2019-03-01T08:51:32.692Z,995.2
2019-03-01T08:52:33.417Z,995.2
2019-03-01T08:53:34.142Z,995.2
2019-03-01T08:54:34.848Z,995.2
2019-03-01T08:55:38.500Z,995.2
2019-03-01T08:56:36.277Z,995.2
2019-03-01T08:57:44.025Z,995.2
2019-03-01T08:58:41.247Z,995.2
2019-03-01T08:59:38.479Z,995.3
2019-03-01T09:00:39.341Z,995.2
2019-03-01T09:01:41.755Z,995.2
2019-03-01T09:02:41.067Z,995.3
2019-03-01T09:03:41.817Z,995.3
2019-03-01T09:04:50.740Z,995.3
2019-03-01T09:05:43.224Z,995.3
2019-03-01T09:06:44.697Z,995.3
2019-03-01T09:07:45.404Z,995.3
2019-03-01T09:08:46.885Z,995.3
2019-03-01T09:09:46.836Z,995.3
2019-03-01T09:10:47.558Z,995.3
2019-03-01T09:11:48.290Z,995.3
2019-03-01T09:12:48.997Z,995.3
2019-03-01T09:13:49.713Z,995.3
2019-03-01T09:14:50.429Z,995.3
2019-03-01T09:15:51.150Z,995.3
2019-03-01T09:16:51.870Z,995.3
2019-03-01T09:17:52.595Z,995.3
2019-03-01T09:18:53.331Z,995.3
2019-03-01T09:19:57.113Z,995.3
2019-03-01T09:21:04.238Z,995.4
2019-03-01T09:21:55.832Z,995.3
2019-03-01T09:22:56.555Z,995.3
2019-03-01T09:23:57.283Z,995.3
2019-03-01T09:24:58.904Z,995.3
2019-03-01T09:26:00.164Z,995.3
2019-03-01T09:27:02.743Z,995.3
2019-03-01T09:28:05.179Z,995.3
2019-03-01T09:29:06.186Z,995.3
2019-03-01T09:30:07.768Z,995.3
2019-03-01T09:31:08.834Z,995.3
2019-03-01T09:32:09.557Z,995.3
2019-03-01T09:33:10.274Z,995.3
2019-03-01T09:34:11.001Z,995.4
2019-03-01T09:35:11.717Z,995.4
2019-03-01T09:36:14.435Z,995.4
2019-03-01T09:37:13.145Z,995.4
2019-03-01T09:38:13.868Z,995.4
2019-03-01T09:39:17.787Z,995.4
2019-03-01T09:40:15.300Z,995.5
2019-03-01T09:41:16.020Z,995.5
2019-03-01T09:42:16.729Z,995.5
2019-03-01T09:43:17.503Z,995.5
2019-03-01T09:44:18.225Z,995.6
2019-03-01T09:45:19.407Z,995.5
2019-03-01T09:46:20.948Z,995.6
2019-03-01T09:47:20.629Z,995.6
2019-03-01T09:48:21.647Z,995.6
2019-03-01T09:49:24.399Z,995.6
2019-03-01T09:50:23.085Z,995.6
2019-03-01T09:51:23.804Z,995.6
2019-03-01T09:52:24.627Z,995.6
2019-03-01T09:53:25.253Z,995.6
2019-03-01T09:54:25.962Z,995.6
2019-03-01T09:55:26.682Z,995.7
2019-03-01T09:56:27.413Z,995.7
2019-03-01T09:57:28.132Z,995.7
2019-03-01T09:58:29.108Z,995.8
2019-03-01T09:59:29.827Z,995.7
2019-03-01T10:00:30.540Z,995.8
2019-03-01T10:01:31.246Z,995.8
2019-03-01T10:02:31.968Z,995.9
2019-03-01T10:03:32.693Z,995.9
2019-03-01T10:04:33.408Z,995.9
2019-03-01T10:05:34.998Z,996.0
2019-03-01T10:06:38.407Z,996.0
2019-03-01T10:07:37.942Z,996.0
2019-03-01T10:08:38.721Z,996.0
2019-03-01T10:09:39.803Z,996.0
2019-03-01T10:10:40.683Z,996.0
2019-03-01T10:11:41.402Z,996.0
2019-03-01T10:12:42.126Z,996.0
2019-03-01T10:13:43.107Z,996.0
2019-03-01T10:14:43.825Z,996.0
2019-03-01T10:15:44.785Z,996.0
2019-03-01T10:16:45.500Z,996.0
2019-03-01T10:17:46.225Z,996.0
2019-03-01T10:18:46.953Z,996.1
2019-03-01T10:19:47.669Z,996.1
2019-03-01T10:20:48.453Z,996.1
2019-03-01T10:21:49.172Z,996.1
2019-03-01T10:22:49.886Z,996.1
2019-03-01T10:23:50.603Z,996.2
2019-03-01T10:24:51.317Z,996.2
2019-03-01T10:25:52.032Z,996.1
2019-03-01T10:26:52.760Z,996.2
2019-03-01T10:27:53.477Z,996.2
2019-03-01T10:28:54.197Z,996.2
2019-03-01T10:29:54.919Z,996.3
2019-03-01T10:30:55.776Z,996.3
2019-03-01T10:31:56.515Z,996.3
2019-03-01T10:32:57.228Z,996.3
2019-03-01T10:33:57.964Z,996.3
2019-03-01T10:34:58.678Z,996.3
2019-03-01T10:35:59.400Z,996.3
2019-03-01T10:37:00.121Z,996.3
2019-03-01T10:38:00.832Z,996.3
2019-03-01T10:39:01.544Z,996.4
2019-03-01T10:40:02.279Z,996.4
2019-03-01T10:41:02.997Z,996.4
2019-03-01T10:42:03.715Z,996.4
2019-03-01T10:43:04.458Z,996.4
2019-03-01T10:44:05.180Z,996.4
2019-03-01T10:45:05.896Z,996.4
2019-03-01T10:46:06.647Z,996.4
2019-03-01T10:47:07.372Z,996.5
2019-03-01T10:48:08.087Z,996.5
2019-03-01T10:49:08.800Z,996.5
2019-03-01T10:50:09.511Z,996.5
2019-03-01T10:51:10.236Z,996.5
2019-03-01T10:52:10.955Z,996.5
2019-03-01T10:53:14.790Z,996.5
2019-03-01T10:54:15.505Z,996.5
2019-03-01T10:55:16.214Z,996.5
2019-03-01T10:56:16.943Z,996.5
2019-03-01T10:57:17.661Z,996.5
2019-03-01T10:58:18.455Z,996.5
2019-03-01T10:59:19.252Z,996.5
2019-03-01T11:00:19.896Z,996.5
2019-03-01T11:01:20.594Z,996.5
2019-03-01T11:02:21.314Z,996.6
2019-03-01T11:03:23.346Z,996.6
2019-03-01T11:04:24.032Z,996.6
2019-03-01T11:05:24.744Z,996.6
2019-03-01T11:06:25.697Z,996.6
2019-03-01T11:07:26.423Z,996.6
2019-03-01T11:08:27.136Z,996.6
2019-03-01T11:09:27.852Z,996.6
2019-03-01T11:10:28.586Z,996.7
2019-03-01T11:11:29.301Z,996.7
2019-03-01T11:12:30.014Z,996.7
2019-03-01T11:13:30.735Z,996.7
2019-03-01T11:14:31.466Z,996.7
2019-03-01T11:15:32.189Z,996.8
2019-03-01T11:16:32.913Z,996.8
2019-03-01T11:17:33.618Z,996.8
2019-03-01T11:18:34.349Z,996.8
2019-03-01T11:19:35.330Z,996.8
2019-03-01T11:20:36.040Z,996.8
2019-03-01T11:21:36.759Z,996.8
2019-03-01T11:22:37.528Z,996.9
2019-03-01T11:23:38.231Z,996.9
2019-03-01T11:24:38.945Z,996.9
2019-03-01T11:25:39.668Z,996.9
2019-03-01T11:26:40.391Z,996.9
2019-03-01T11:27:41.139Z,996.9
2019-03-01T11:28:41.849Z,996.9
2019-03-01T11:29:42.565Z,996.9
2019-03-01T11:30:43.287Z,996.9
2019-03-01T11:31:44.011Z,996.9
2019-03-01T11:32:44.733Z,996.9
2019-03-01T11:33:45.447Z,996.9
2019-03-01T11:34:46.255Z,996.9
2019-03-01T11:35:47.008Z,997.0
2019-03-01T11:36:47.716Z,997.0
2019-03-01T11:37:48.444Z,997.0
2019-03-01T11:38:49.154Z,997.0
2019-03-01T11:39:50.529Z,997.0
2019-03-01T11:40:51.339Z,997.1
2019-03-01T11:41:52.057Z,997.1
2019-03-01T11:42:53.023Z,997.1
2019-03-01T11:43:53.778Z,997.1
2019-03-01T11:44:54.497Z,997.1
2019-03-01T11:45:55.212Z,997.1
2019-03-01T11:46:56.672Z,997.1
2019-03-01T11:47:58.127Z,997.1
2019-03-01T11:48:58.835Z,997.1
2019-03-01T11:49:59.544Z,997.2
2019-03-01T11:51:00.265Z,997.2
2019-03-01T11:52:01.459Z,997.2
2019-03-01T11:53:02.174Z,997.2
2019-03-01T11:54:02.897Z,997.2
2019-03-01T11:55:03.767Z,997.2
2019-03-01T11:56:04.487Z,997.2
2019-03-01T11:57:05.200Z,997.2
2019-03-01T11:58:05.939Z,997.3
2019-03-01T11:59:06.652Z,997.2
2019-03-01T12:00:07.533Z,997.3
2019-03-01T12:01:16.860Z,997.3
2019-03-01T12:02:08.972Z,997.3
2019-03-01T12:03:09.690Z,997.3
2019-03-01T12:04:10.414Z,997.3
2019-03-01T12:05:11.228Z,997.3
2019-03-01T12:06:11.947Z,997.3
2019-03-01T12:07:12.655Z,997.3
2019-03-01T12:08:13.365Z,997.3
2019-03-01T12:09:14.068Z,997.3
2019-03-01T12:10:14.782Z,997.4
2019-03-01T12:11:15.487Z,997.4
2019-03-01T12:12:16.202Z,997.4
2019-03-01T12:13:16.932Z,997.4
2019-03-01T12:14:17.642Z,997.4
2019-03-01T12:15:18.389Z,997.4
2019-03-01T12:16:19.111Z,997.4
2019-03-01T12:17:19.821Z,997.5
2019-03-01T12:18:20.550Z,997.5
2019-03-01T12:19:21.307Z,997.5
2019-03-01T12:20:21.991Z,997.5
2019-03-01T12:21:22.696Z,997.5
2019-03-01T12:22:23.431Z,997.5
2019-03-01T12:23:24.151Z,997.5
2019-03-01T12:24:24.869Z,997.5
2019-03-01T12:25:25.629Z,997.5
2019-03-01T12:26:26.348Z,997.5
2019-03-01T12:27:27.066Z,997.5
2019-03-01T12:28:27.777Z,997.5
2019-03-01T12:29:28.496Z,997.6
2019-03-01T12:30:29.213Z,997.6
2019-03-01T12:31:29.930Z,997.6
2019-03-01T12:32:30.637Z,997.7
2019-03-01T12:33:31.593Z,997.6
2019-03-01T12:34:32.326Z,997.7
2019-03-01T12:35:33.047Z,997.8
2019-03-01T12:36:33.766Z,997.7
2019-03-01T12:37:34.493Z,997.7
2019-03-01T12:38:35.226Z,997.8
2019-03-01T12:39:36.199Z,997.7
2019-03-01T12:40:36.914Z,997.8
2019-03-01T12:41:37.628Z,997.8
2019-03-01T12:42:38.356Z,997.9
2019-03-01T12:43:39.069Z,997.8
2019-03-01T12:44:39.771Z,997.7
2019-03-01T12:45:40.489Z,997.8
2019-03-01T12:46:41.189Z,997.8
2019-03-01T12:47:41.916Z,997.8
2019-03-01T12:48:42.616Z,997.8
2019-03-01T12:49:43.333Z,997.8
2019-03-01T12:50:44.046Z,997.8
2019-03-01T12:51:44.762Z,997.9
2019-03-01T12:52:45.484Z,997.9
2019-03-01T12:53:46.252Z,997.9
2019-03-01T12:54:46.971Z,997.9
2019-03-01T12:55:47.692Z,997.9
2019-03-01T12:56:48.410Z,998.0
2019-03-01T12:57:49.121Z,997.9
2019-03-01T12:58:49.846Z,997.9
2019-03-01T12:59:50.567Z,997.9
2019-03-01T13:00:51.276Z,997.9
2019-03-01T13:01:52.010Z,997.9
2019-03-01T13:02:52.732Z,997.9
2019-03-01T13:03:53.461Z,997.9